Astroworld, Texas
Current Conditions -  °F | °C
As of 3:35 AM on Sunday 26 Oct 2014 (Local Time) from KMCJ Reporting Station
Clear Clear  
Wind Chill: 66°   Ceiling: Unl
Heat Index: 66°   Visibility: 10mi
Dew Point: 59°   Wind: 3mph
Humidity: 78%   Direction: 200°SSW
Pressure: 30.03"   Gusts: NA
Location:  29.6867°N, 95.4345°W
Report Text: KMCJ 260835Z AUTO 20003KT 10SM CLR 19/15 A3003 RMK AO1
Loading
Personal Weather Stations






























Interactive Weather Map
Tropical Storm Tracking
New forecast layout! Learn more

10-Day Weather Forecast

Advertisements
Track Severe Weather on mobile